Accueil
METAR-TAF:

METAR-TAF

Aéroports :

Koweït, Koweït

Aéroport international de Koweït

latitude: 29-13N, longitude: 047-59E, altitude: 55 m

Observation

Le bulletin a été fait il y a 52 minutes, à 03:00 UTC
Vent 6 kt de nord
Température 36°C
Humidité 18%
Pression 998 hPa
Visibilité 10 km ou plus
pas de nuages en-dessous de 1500 mètres et pas de cumulonimbus.

METAR: OKBK 290300Z 35006KT CAVOK 36/08 Q0998 NOSIG

Heure: 06:52 (03:52 UTC)

Prévision

Le bulletin a été fait il y a 5 heures et 7 minutes, à 22:45 UTC
Prévision valable du 29 à 00 UTC au 30 à 06 UTC
Vent 12 kt de nord/nord-ouest avec des rafales jusqu'à 25 kt
Visibilité: 7000 m
Ciel clair
Temporairement
du 29 à 00 UTC au 29 à 15 UTC
Visibilité: 3000 m
Chasse-poussière élevée

TAF: OKBK 282245Z 2900/3006 34012G25KT 7000 SKC TEMPO 2900/2915 3000 BLDU

Observations et prévisions météorologiques de plus de 4000 aéroports (messages METAR et TAF).

Les stations disponibles sont représentées par des disques jaunes et rouges sur la carte.

Passer la souris dessus pour voir le nom de la station.

Cliquer dessus pour voir les observations et prévisions météorologiques.

Pour changer de carte: cliquez sur les boutons verts avec une croix noire pour zoomer, sur le bouton vert avec un tiret pour effectuer un zoom arrière, ou sur les flèches vertes pour les cartes adjacentes.


METAR-TAF: